Latest Weather Observations for Kingscote

IDS60801

Issued at 12:31 pm CDT Thursday 23 March 2017 (issued every 30 minutes, with the page automatically refreshed every 10 minutes)

About weather observations | Map of weather stations | Latest weather observations for SA | Other Formats
Station Details ID: 022841 Name: KINGSCOTE AERO Lat: -35.71 Lon: 137.52 Height: 6.23 m
Data from the previous 72 hours. | See also: Recent months at Kingscote
Date/Time
CDT
Temp
°C
App
Temp
°C
Dew
Point
°C
Rel
Hum
%
Delta-T
°C
Wind Press
QNH
hPa
Press
MSL
hPa
Rain since
9am
mm
Dir  Spd
km/h
Gust
km/h
Spd
kts
Gust
kts
23/12:00pm 20.3 17.5 15.3 73 2.9 ESE 24 33 13 18 1019.0 1019.0 0.0
23/11:30am 20.0 17.7 15.6 76 2.6 ESE 22 30 12 16 1019.5 1019.5 0.0
23/11:00am 19.3 17.1 15.0 76 2.5 ESE 20 28 11 15 1020.0 1020.0 0.0
23/10:30am 19.1 16.5 15.0 77 2.4 ESE 22 28 12 15 1020.1 1020.1 0.0
23/10:00am 18.8 16.7 15.1 79 2.2 ESE 20 28 11 15 1019.9 1019.9 0.0
23/09:30am 18.3 15.6 14.6 79 2.1 ESE 22 30 12 16 1019.5 1019.5 0.0
23/09:00am 18.2 15.7 15.1 82 1.8 ESE 22 30 12 16 1019.4 1019.4 0.0
23/08:30am 18.2 16.4 15.5 84 1.6 ESE 19 24 10 13 1019.5 1019.5 0.0
23/08:00am 18.0 16.1 15.3 84 1.6 SE 19 26 10 14 1019.2 1019.2 0.0
23/07:30am 17.8 16.3 15.4 86 1.4 SE 17 24 9 13 1019.1 1019.1 0.0
23/07:00am 17.8 15.4 15.4 86 1.4 SE 22 28 12 15 1018.9 1018.9 0.0
23/06:30am 17.8 16.4 15.6 87 1.3 SE 17 24 9 13 1018.5 1018.5 0.0
23/06:00am 17.7 15.3 15.5 87 1.3 SE 22 32 12 17 1018.1 1018.1 0.0
23/05:30am 17.3 15.3 15.5 89 1.1 SE 20 26 11 14 1018.1 1018.1 0.0
23/05:00am 17.3 16.2 15.3 88 1.2 SE 15 20 8 11 1018.3 1018.3 0.0
23/04:30am 17.3 16.1 15.1 87 1.3 SE 15 19 8 10 1018.5 1018.5 0.0
23/04:18am 17.4 15.9 15.2 87 1.3 SE 17 20 9 11 1018.7 1018.7 0.0
23/04:00am 17.4 15.8 15.0 86 1.4 SE 17 24 9 13 1019.0 1019.0 0.0
23/03:30am 17.7 16.9 15.1 85 1.5 ESE 13 19 7 10 1019.0 1019.0 0.0
23/03:00am 17.7 16.9 15.1 85 1.5 SE 13 17 7 9 1019.3 1019.3 0.0
23/02:30am 17.6 17.1 15.0 85 1.5 ESE 11 15 6 8 1019.4 1019.4 0.0
23/02:00am 17.6 16.0 15.0 85 1.5 ESE 17 24 9 13 1019.2 1019.2 0.0
23/01:38am 17.6 15.4 14.9 84 1.6 SE 20 33 11 18 1019.1 1019.1 0.0
23/01:30am 17.6 15.6 15.0 85 1.5 SE 19 26 10 14 1019.3 1019.3 0.0
23/01:00am 17.6 15.4 15.0 85 1.5 SE 20 28 11 15 1019.4 1019.4 0.0
23/12:30am 17.3 14.7 14.8 85 1.4 SE 22 32 12 17 1019.6 1019.6 0.0
23/12:00am 17.3 14.2 14.6 84 1.6 SE 24 35 13 19 1019.7 1019.7 0.0
 
Date/Time
CDT
Temp
°C
App
Temp
°C
Dew
Point
°C
Rel
Hum
%
Delta-T
°C
Wind Press
QNH
hPa
Press
MSL
hPa
Rain since
9am
mm
Dir  Spd
km/h
Gust
km/h
Spd
kts
Gust
kts
22/11:30pm 17.3 13.8 14.4 83 1.7 SE 26 33 14 18 1019.8 1019.8 0.0
22/11:00pm 17.2 13.6 14.3 83 1.7 SE 26 35 14 19 1019.8 1019.8 0.0
22/10:30pm 17.3 13.3 14.2 82 1.8 SE 28 37 15 20 1019.8 1019.8 0.0
22/10:00pm 17.2 13.1 13.9 81 1.9 SE 28 37 15 20 1019.9 1019.9 0.0
22/09:30pm 17.3 13.3 14.0 81 1.9 SE 28 43 15 23 1019.7 1019.7 0.0
22/09:00pm 17.3 13.3 14.0 81 1.9 SSE 28 39 15 21 1019.5 1019.5 0.0
22/08:30pm 17.5 13.5 14.2 81 1.9 SE 28 39 15 21 1019.2 1019.2 0.0
22/08:00pm 17.6 13.6 14.1 80 2.0 SE 28 35 15 19 1019.0 1019.0 0.0
22/07:30pm 17.7 14.0 14.0 79 2.1 SE 26 35 14 19 1019.1 1019.1 0.0
22/07:00pm 17.9 13.5 14.2 79 2.1 SSE 30 43 16 23 1018.7 1018.7 0.0
22/06:30pm 18.0 13.7 14.3 79 2.1 SSE 30 39 16 21 1018.6 1018.6 0.0
22/06:10pm 18.2 14.3 14.5 79 2.1 SSE 28 46 15 25 1018.4 1018.4 0.0
22/06:00pm 18.2 13.9 14.5 79 2.1 SSE 30 41 16 22 1018.2 1018.2 0.0
22/05:30pm 18.3 14.5 14.8 80 2.0 SSE 28 39 15 21 1018.3 1018.3 0.0
22/05:00pm 18.4 14.9 14.5 78 2.3 SSE 26 37 14 20 1018.5 1018.5 0.0
22/04:30pm 19.2 15.1 14.9 76 2.5 SE 30 43 16 23 1018.5 1018.5 0.0
22/04:00pm 19.1 13.9 14.6 75 2.6 SE 35 46 19 25 1018.3 1018.3 0.0
22/03:30pm 20.0 15.5 14.8 72 3.0 SE 32 43 17 23 1018.4 1018.4 0.0
22/03:00pm 19.6 14.5 14.8 74 2.8 SE 35 52 19 28 1018.5 1018.5 0.0
22/02:52pm 19.1 14.5 15.0 77 2.4 SE 33 52 18 28 1018.6 1018.6 0.0
22/02:30pm 19.5 16.1 15.8 79 2.2 SE 28 39 15 21 1018.8 1018.8 0.0
22/02:00pm 19.4 15.1 15.5 78 2.3 SE 32 39 17 21 1018.7 1018.7 0.0
22/01:30pm 19.9 15.0 14.3 70 3.2 SE 33 44 18 24 1018.7 1018.7 0.0
22/01:00pm 20.3 15.1 14.4 69 3.4 SE 35 44 19 24 1019.2 1019.2 0.0
22/12:30pm 19.8 14.4 14.0 69 3.3 SE 35 50 19 27 1019.3 1019.3 0.0
22/12:00pm 19.6 14.6 15.0 75 2.7 SE 35 46 19 25 1019.5 1019.5 0.0
22/11:52am 19.1 13.9 14.4 74 2.7 SE 35 54 19 29 1019.6 1019.6 0.0
22/11:30am 20.0 14.5 14.8 72 3.0 SE 37 54 20 29 1019.5 1019.5 0.0
22/11:21am 19.5 14.4 14.7 74 2.8 SE 35 54 19 29 1019.7 1019.7 0.0
22/11:00am 19.4 14.0 15.1 76 2.5 SE 37 54 20 29 1019.6 1019.6 0.0
22/10:57am 19.4 14.2 14.6 74 2.8 SE 35 54 19 29 1019.4 1019.4 0.0
22/10:30am 19.5 15.3 16.2 81 2.0 SE 33 46 18 25 1019.4 1019.4 0.0
22/10:00am 18.3 15.5 16.3 88 1.2 SSE 26 35 14 19 1019.7 1019.7 0.0
22/09:30am 17.7 14.5 16.2 91 0.9 SSE 28 37 15 20 1019.3 1019.3 0.0
22/09:02am 17.8 15.7 16.1 90 1.0 SSE 22 30 12 16 1019.1 1019.1 0.0
22/09:00am 17.7 15.1 16.0 90 1.0 SSE 24 30 13 16 1019.1 1019.1 0.0
22/08:43am 17.5 15.3 16.0 91 0.9 SSE 22 32 12 17 1019.0 1019.0 0.0
22/08:30am 17.9 15.2 15.7 87 1.3 SE 24 33 13 18 1018.9 1018.9 0.0
22/08:00am 17.9 15.5 15.5 86 1.4 SSE 22 32 12 17 1018.5 1018.5 0.0
22/07:59am 17.8 15.5 15.6 87 1.3 SSE 22 32 12 17 1018.5 1018.5 0.0
22/07:30am 17.6 14.6 15.8 89 1.1 SE 26 35 14 19 1017.8 1017.8 0.0
22/07:20am 18.0 15.3 15.6 86 1.4 SE 24 33 13 18 1017.7 1017.7 0.0
22/07:00am 18.2 15.9 15.6 85 1.5 SSE 22 33 12 18 1017.3 1017.3 0.0
22/06:30am 18.3 15.6 15.6 84 1.6 SSE 24 37 13 20 1016.6 1016.6 0.0
22/06:00am 18.4 14.8 15.3 82 1.8 SE 28 41 15 22 1016.4 1016.4 0.0
22/05:30am 18.5 14.2 15.4 82 1.8 SE 32 44 17 24 1016.2 1016.2 0.0
22/05:00am 18.6 14.6 15.3 81 1.9 SE 30 43 16 23 1016.1 1016.1 0.0
22/04:30am 18.7 15.2 15.6 82 1.8 SE 28 44 15 24 1016.1 1016.1 0.0
22/04:00am 18.8 15.7 15.7 82 1.8 SE 26 37 14 20 1016.2 1016.2 0.0
22/03:30am 18.8 14.7 15.9 83 1.7 SE 32 41 17 22 1015.9 1015.9 0.0
22/03:00am 18.8 15.9 16.0 84 1.7 SE 26 35 14 19 1016.0 1016.0 0.0
22/02:30am 18.7 15.3 15.9 84 1.7 SE 28 43 15 23 1015.7 1015.7 0.0
22/02:00am 18.7 15.0 15.9 84 1.7 SE 30 41 16 22 1015.8 1015.8 0.0
22/01:34am 18.8 15.5 16.0 84 1.7 SE 28 43 15 23 1015.8 1015.8 0.0
22/01:30am 18.8 15.5 16.0 84 1.7 SE 28 43 15 23 1015.7 1015.7 0.0
22/01:12am 18.8 15.5 16.0 84 1.7 SE 28 50 15 27 1015.5 1015.5 0.0
22/01:00am 18.8 16.3 16.2 85 1.6 SE 24 41 13 22 1015.5 1015.5 0.0
22/12:56am 18.8 16.3 16.2 85 1.6 SE 24 41 13 22 1015.5 1015.5 0.0
22/12:30am 18.7 15.3 15.9 84 1.7 SE 28 44 15 24 1015.4 1015.4 0.0
22/12:00am 18.8 14.6 16.2 85 1.5 SE 33 52 18 28 1015.3 1015.3 0.0
 
Date/Time
CDT
Temp
°C
App
Temp
°C
Dew
Point
°C
Rel
Hum
%
Delta-T
°C
Wind Press
QNH
hPa
Press
MSL
hPa
Rain since
9am
mm
Dir  Spd
km/h
Gust
km/h
Spd
kts
Gust
kts
21/11:48pm 18.9 14.4 16.3 85 1.6 SSE 35 54 19 29 1015.1 1015.1 0.0
21/11:43pm 18.9 14.4 16.3 85 1.6 SSE 35 48 19 26 1015.1 1015.1 0.0
21/11:30pm 18.9 14.4 16.3 85 1.6 SSE 35 46 19 25 1015.1 1015.1 0.0
21/11:00pm 18.8 14.4 16.6 87 1.3 SSE 35 48 19 26 1015.2 1015.2 0.0
21/10:30pm 18.9 15.0 16.5 86 1.4 SSE 32 44 17 24 1015.3 1015.3 0.0
21/10:01pm 18.9 15.8 16.5 86 1.4 SSE 28 46 15 25 1014.8 1014.8 0.0
21/10:00pm 18.9 15.8 16.5 86 1.4 SSE 28 41 15 22 1014.9 1014.9 0.0
21/09:30pm 18.9 16.2 16.5 86 1.4 SSE 26 43 14 23 1014.7 1014.7 0.0
21/09:00pm 19.1 16.3 16.3 84 1.7 SE 26 39 14 21 1014.2 1014.2 0.0
21/08:30pm 19.3 15.7 16.3 83 1.8 SSE 30 41 16 22 1014.0 1014.0 0.0
21/08:00pm 19.3 16.3 16.9 86 1.5 SSE 28 43 15 23 1013.5 1013.5 0.0
21/07:30pm 19.3 16.3 16.7 85 1.6 SSE 28 39 15 21 1013.1 1013.1 0.0
21/07:00pm 19.4 16.8 16.8 85 1.6 SSE 26 35 14 19 1013.0 1013.0 0.0
21/06:30pm 19.7 17.5 16.9 84 1.7 SSE 24 33 13 18 1012.5 1012.5 0.0
21/06:00pm 20.4 17.3 17.4 83 1.8 SSE 30 39 16 21 1012.1 1012.1 0.0
21/05:30pm 20.2 17.0 17.2 83 1.8 SSE 30 39 16 21 1012.0 1012.0 0.0
21/05:06pm 21.1 17.3 17.3 79 2.3 SSE 33 44 18 24 1011.8 1011.8 0.0
21/05:00pm 21.0 17.2 17.2 79 2.3 SSE 33 44 18 24 1011.8 1011.8 0.0
21/04:30pm 22.4 18.6 17.3 73 3.1 SSE 33 44 18 24 1011.5 1011.5 0.0
21/04:00pm 21.9 18.4 17.5 76 2.7 SSE 32 39 17 21 1011.4 1011.4 0.0
21/03:30pm 22.6 18.7 17.9 75 2.9 SSE 35 44 19 24 1011.2 1011.2 0.0
21/03:00pm 24.5 21.7 18.2 68 4.0 SSE 30 39 16 21 1010.9 1010.9 0.0
21/02:30pm 25.1 22.6 17.1 61 5.0 E 26 33 14 18 1010.7 1010.7 0.0
21/02:00pm 25.9 23.7 17.0 58 5.5 E 24 32 13 17 1010.8 1010.8 0.0
21/01:30pm 24.9 23.5 17.9 65 4.4 E 22 30 12 16 1011.0 1011.0 0.0
21/01:00pm 23.9 20.9 16.9 65 4.3 ESE 28 37 15 20 1011.1 1011.1 0.0
21/12:30pm 23.8 21.3 18.0 70 3.6 ESE 28 35 15 19 1011.7 1011.7 0.0
21/12:00pm 22.2 19.7 18.0 77 2.6 SSE 28 37 15 20 1012.4 1012.4 0.0
21/11:30am 21.7 19.5 17.9 79 2.4 SSE 26 35 14 19 1012.8 1012.8 0.0
21/11:00am 22.4 19.8 17.8 75 2.9 ESE 28 41 15 22 1011.8 1011.8 0.0
21/10:44am 21.9 19.1 17.3 75 2.8 SE 28 46 15 25 1011.4 1011.4 0.0
21/10:30am 22.8 20.9 18.6 77 2.6 ESE 26 37 14 20 1011.3 1011.3 0.0
21/10:00am 21.6 20.9 18.2 81 2.1 SE 19 24 10 13 1010.9 1010.9 0.0
21/09:30am 20.2 19.3 17.8 86 1.5 ESE 19 26 10 14 1010.5 1010.5 0.0
21/09:00am 19.9 17.8 18.0 89 1.2 SE 26 32 14 17 1010.2 1010.2 29.6
21/08:30am 19.5 15.7 18.2 92 0.8 SSE 35 44 19 24 1010.3 1010.3 29.6
21/08:19am 19.2 16.6 17.9 92 0.8 SSE 28 43 15 23 1010.2 1010.2 29.6
21/08:00am 18.7 18.2 17.9 95 0.5 SSW 17 24 9 13 1010.1 1010.1 29.6
21/07:30am 18.1 18.1 17.3 95 0.5 SW 13 17 7 9 1009.8 1009.8 29.6
21/07:00am 17.6 16.2 16.6 94 0.6 WSW 19 22 10 12 1009.7 1009.7 29.4
21/06:46am 17.9 18.4 16.6 92 0.8 E 9 13 5 7 1009.2 1009.2 29.4
21/06:30am 18.0 18.0 16.3 90 1.0 E 11 19 6 10 1010.0 1010.0 29.2
21/06:28am 18.1 18.2 16.4 90 1.0 ESE 11 19 6 10 1009.5 1009.5 29.2
21/06:00am 17.9 15.4 16.2 90 1.0 S 24 30 13 16 1008.2 1008.2 27.2
21/05:47am 18.0 16.2 16.0 88 1.2 ESE 20 30 11 16 1008.5 1008.5 27.2
21/05:30am 17.8 13.3 16.3 91 0.9 ESE 35 50 19 27 1008.5 1008.5 27.0
21/05:28am 17.9 13.3 16.2 90 1.0 ESE 35 50 19 27 1008.6 1008.6 27.0
21/05:22am 18.0 13.2 16.5 91 0.9 SE 37 46 20 25 1008.4 1008.4 27.0
21/05:11am 17.9 13.9 16.6 92 0.8 ESE 33 48 18 26 1009.1 1009.1 26.8
21/05:00am 18.0 16.6 16.5 91 0.9 ESE 19 35 10 19 1011.1 1011.1 26.0
21/04:47am 18.6 15.2 15.7 83 1.7 SW 28 46 15 25 1010.9 1010.9 24.8
21/04:33am 18.7 16.7 17.4 92 0.8 S 24 44 13 24 1011.2 1011.2 19.8
21/04:30am 19.6 18.1 18.6 94 0.6 SSE 24 39 13 21 1011.2 1011.2 18.0
21/04:27am 19.6 17.3 18.4 93 0.7 SE 28 46 15 25 1011.4 1011.4 16.2
21/04:26am 19.6 16.5 18.4 93 0.7 SE 32 52 17 28 1011.4 1011.4 16.2
21/04:20am 18.4 13.0 16.9 91 0.9 SE 41 54 22 29 1009.4 1009.4 15.8
21/04:19am 18.5 13.1 17.0 91 0.9 SSE 41 54 22 29 1009.2 1009.2 15.8
21/04:10am 19.5 17.7 18.8 96 0.4 S 26 50 14 27 1009.5 1009.5 14.4
21/04:08am 19.4 18.7 18.6 95 0.5 SSW 20 46 11 25 1009.6 1009.6 13.4
21/04:00am 19.6 21.0 18.6 94 0.6 NE 9 17 5 9 1010.3 1010.3 5.6
21/03:30am 20.1 19.9 18.4 90 1.1 SSW 17 28 9 15 1009.1 1009.1 0.0
21/03:28am 20.1 20.2 18.4 90 1.1 S 15 20 8 11 1009.3 1009.3 0.0
21/03:09am 20.0 19.2 18.1 89 1.2 SE 19 26 10 14 1009.3 1009.3 0.0
21/03:00am 19.9 19.5 18.0 89 1.2 SE 17 24 9 13 1009.6 1009.6 0.0
21/02:30am 19.9 19.1 18.0 89 1.2 SSE 19 26 10 14 1009.7 1009.7 0.0
21/02:00am 19.6 18.8 17.9 90 1.0 SE 19 26 10 14 1009.8 1009.8 0.0
21/01:30am 19.5 19.8 18.0 91 0.9 SE 13 22 7 12 1010.1 1010.1 0.0
21/01:00am 19.5 18.1 18.0 91 0.9 SE 22 30 12 16 1009.9 1009.9 0.0
21/12:30am 19.4 18.4 17.9 91 0.9 SSE 20 28 11 15 1010.1 1010.1 0.0
21/12:00am 19.4 18.3 17.7 90 1.0 SSE 20 28 11 15 1010.5 1010.5 0.0
 
Date/Time
CDT
Temp
°C
App
Temp
°C
Dew
Point
°C
Rel
Hum
%
Delta-T
°C
Wind Press
QNH
hPa
Press
MSL
hPa
Rain since
9am
mm
Dir  Spd
km/h
Gust
km/h
Spd
kts
Gust
kts
20/11:30pm 19.6 18.8 17.9 90 1.0 SE 19 30 10 16 1010.8 1010.8 0.0
20/11:00pm 19.7 18.6 17.8 89 1.2 SSE 20 28 11 15 1010.7 1010.7 0.0
20/10:30pm 19.9 18.9 18.0 89 1.2 S 20 26 11 14 1011.2 1011.2 0.0
20/10:00pm 19.9 18.9 17.9 88 1.2 S 20 28 11 15 1011.3 1011.3 0.0
20/09:30pm 19.7 18.6 17.7 88 1.2 SSE 20 30 11 16 1011.2 1011.2 0.0
20/09:00pm 19.7 19.2 17.7 88 1.2 S 17 22 9 12 1011.5 1011.5 0.0
20/08:30pm 19.7 18.7 17.5 87 1.3 S 19 26 10 14 1011.3 1011.3 0.0
20/08:00pm 19.9 19.7 17.5 86 1.5 S 15 20 8 11 1011.3 1011.3 0.0
20/07:30pm 20.2 19.1 17.4 84 1.7 SSE 19 26 10 14 1011.2 1011.2 0.0
20/07:00pm 20.5 18.5 17.3 82 2.0 S 24 30 13 16 1011.2 1011.2 0.0
20/06:30pm 21.0 18.9 17.2 79 2.3 SSE 24 35 13 19 1010.9 1010.9 0.0
20/06:00pm 21.4 18.9 17.0 76 2.7 SSE 26 32 14 17 1010.9 1010.9 0.0
20/05:30pm 22.3 18.6 17.0 72 3.3 S 32 39 17 21 1010.4 1010.4 0.0
20/05:00pm 23.0 20.8 16.8 68 3.8 S 24 33 13 18 1010.6 1010.6 0.0
20/04:30pm 23.1 20.0 16.6 67 4.0 SSE 28 37 15 20 1010.1 1010.1 0.0
20/04:00pm 22.8 19.3 16.4 67 3.9 SSE 30 39 16 21 1010.3 1010.3 0.0
20/03:30pm 24.7 22.0 16.7 61 4.9 SSE 26 33 14 18 1010.8 1010.8 0.0
20/03:00pm 24.9 21.5 15.8 57 5.5 SSE 28 35 15 19 1011.1 1011.1 0.0
20/02:30pm 25.0 22.1 16.2 58 5.4 S 26 33 14 18 1011.6 1011.6 0.0
20/02:00pm 24.1 21.8 16.6 63 4.6 S 24 35 13 19 1011.9 1011.9 0.0
20/01:30pm 25.1 22.9 16.8 60 5.1 SSE 24 32 13 17 1012.2 1012.2 0.0
20/01:00pm 24.5 21.4 16.5 61 4.9 SSE 28 37 15 20 1012.4 1012.4 0.0

Other Formats:

Comma delimited format used in spreadsheet applications
http://www.bom.gov.au/fwo/IDS60801/IDS60801.95807.axf

JavaScript Object Notation format (JSON) in row-major order
http://www.bom.gov.au/fwo/IDS60801/IDS60801.95807.json